Time,TemperatureF,DewpointF,PressureIn,WindDirection,WindDirectionDegrees,WindSpeedMPH,WindSpeedGustMPH,Humidity,HourlyPrecipIn,Conditions,Clouds,dailyrainin,SoftwareType,DateUTC
2013-05-10 00:02:00,52.8,51.1,29.97,NE,36,0.0,0.0,94,0.00,,,0.00,Wunderground v.1.15,2013-05-10 04:02:00,
2013-05-10 00:06:00,52.8,51.1,29.97,NE,36,0.0,0.0,94,0.00,,,0.00,Wunderground v.1.15,2013-05-10 04:06:00,
2013-05-10 00:07:00,52.8,51.1,29.97,NE,36,0.0,0.0,94,0.00,,,0.00,Wunderground v.1.15,2013-05-10 04:07:00,
2013-05-10 00:11:00,52.8,51.1,29.97,NE,36,0.0,0.0,94,0.00,,,0.00,Wunderground v.1.15,2013-05-10 04:11:00,
2013-05-10 00:17:00,52.6,50.9,29.97,NE,36,0.0,0.0,94,0.00,,,0.00,Wunderground v.1.15,2013-05-10 04:17:00,
2013-05-10 00:22:00,52.4,50.7,29.98,NE,36,0.0,0.0,94,0.00,,,0.00,Wunderground v.1.15,2013-05-10 04:22:00,
2013-05-10 00:28:00,52.3,50.6,29.98,NE,36,0.0,0.0,94,0.00,,,0.00,Wunderground v.1.15,2013-05-10 04:28:00,
2013-05-10 00:35:00,52.2,50.5,29.98,NE,36,0.0,0.0,94,0.00,,,0.00,Wunderground v.1.15,2013-05-10 04:35:00,
2013-05-10 00:41:00,52.3,50.6,29.98,NE,36,0.0,0.0,94,0.00,,,0.00,Wunderground v.1.15,2013-05-10 04:41:00,
2013-05-10 00:47:00,52.3,50.6,29.98,NE,36,0.0,0.0,94,0.00,,,0.00,Wunderground v.1.15,2013-05-10 04:47:00,
2013-05-10 00:52:00,52.2,50.5,29.98,NE,36,0.0,0.0,94,0.00,,,0.00,Wunderground v.1.15,2013-05-10 04:52:00,
2013-05-10 00:57:00,52.1,50.4,29.98,NE,36,0.0,0.0,94,0.00,,,0.00,Wunderground v.1.15,2013-05-10 04:57:00,
2013-05-10 01:02:00,51.9,50.2,29.98,NE,36,0.0,0.0,94,0.00,,,0.00,Wunderground v.1.15,2013-05-10 05:02:00,
2013-05-10 01:08:00,51.8,50.1,29.98,NE,36,0.0,0.0,94,0.00,,,0.00,Wunderground v.1.15,2013-05-10 05:08:00,
2013-05-10 01:14:00,51.4,49.7,29.98,NE,36,0.0,0.0,94,0.00,,,0.00,Wunderground v.1.15,2013-05-10 05:14:00,
2013-05-10 01:20:00,51.3,49.6,29.98,NE,36,0.0,0.0,94,0.00,,,0.00,Wunderground v.1.15,2013-05-10 05:20:00,
2013-05-10 01:25:00,51.1,49.4,29.98,NE,36,0.0,0.0,94,0.00,,,0.00,Wunderground v.1.15,2013-05-10 05:25:00,
2013-05-10 01:30:00,50.9,49.2,29.98,NE,36,0.0,0.0,94,0.00,,,0.00,Wunderground v.1.15,2013-05-10 05:30:00,
2013-05-10 01:35:00,50.8,49.1,29.98,NE,36,0.0,0.0,94,0.00,,,0.00,Wunderground v.1.15,2013-05-10 05:35:00,
2013-05-10 01:41:00,50.8,49.1,29.98,NE,36,0.0,0.0,94,0.00,,,0.00,Wunderground v.1.15,2013-05-10 05:41:00,
2013-05-10 01:47:00,50.6,48.9,29.98,NE,36,0.0,0.0,94,0.00,,,0.00,Wunderground v.1.15,2013-05-10 05:47:00,
2013-05-10 01:52:00,50.5,48.8,29.98,NE,36,0.0,0.0,94,0.00,,,0.00,Wunderground v.1.15,2013-05-10 05:52:00,
2013-05-10 01:58:00,50.0,48.3,29.98,NE,36,0.0,0.0,94,0.00,,,0.00,Wunderground v.1.15,2013-05-10 05:58:00,
2013-05-10 02:05:00,49.5,47.6,29.98,NE,36,0.0,0.0,93,0.00,,,0.00,Wunderground v.1.15,2013-05-10 06:05:00,
2013-05-10 02:10:00,49.1,47.4,29.98,NE,36,0.0,0.0,94,0.00,,,0.00,Wunderground v.1.15,2013-05-10 06:10:00,
2013-05-10 02:17:00,49.0,47.3,29.97,NE,36,0.0,0.0,94,0.00,,,0.00,Wunderground v.1.15,2013-05-10 06:17:00,
2013-05-10 02:22:00,48.9,47.2,29.98,NE,36,0.0,0.0,94,0.00,,,0.00,Wunderground v.1.15,2013-05-10 06:22:00,
2013-05-10 02:28:00,48.9,47.2,29.97,NE,36,0.0,0.0,94,0.00,,,0.00,Wunderground v.1.15,2013-05-10 06:28:00,
2013-05-10 02:35:00,48.7,47.1,29.98,NE,36,0.0,0.0,94,0.00,,,0.00,Wunderground v.1.15,2013-05-10 06:35:00,
2013-05-10 02:41:00,48.4,46.8,29.97,NE,36,0.0,0.0,94,0.00,,,0.00,Wunderground v.1.15,2013-05-10 06:41:00,
2013-05-10 02:47:00,48.2,46.6,29.97,NE,36,0.0,0.0,94,0.00,,,0.00,Wunderground v.1.15,2013-05-10 06:47:00,
2013-05-10 02:52:00,48.3,46.9,29.97,NE,36,0.0,0.0,95,0.00,,,0.00,Wunderground v.1.15,2013-05-10 06:52:00,
2013-05-10 02:57:00,48.2,46.8,29.97,NE,36,0.0,0.0,95,0.00,,,0.00,Wunderground v.1.15,2013-05-10 06:57:00,
2013-05-10 03:03:00,48.3,46.9,29.98,NE,36,0.0,0.0,95,0.00,,,0.00,Wunderground v.1.15,2013-05-10 07:03:00,
2013-05-10 03:08:00,48.1,46.7,29.97,NE,36,0.0,0.0,95,0.00,,,0.00,Wunderground v.1.15,2013-05-10 07:08:00,
2013-05-10 03:13:00,47.8,46.2,29.97,NE,36,0.0,0.0,94,0.00,,,0.00,Wunderground v.1.15,2013-05-10 07:13:00,
2013-05-10 03:18:00,47.7,46.1,29.97,NE,36,0.0,0.0,94,0.00,,,0.00,Wunderground v.1.15,2013-05-10 07:18:00,
2013-05-10 03:23:00,47.6,46.2,29.97,NE,36,0.0,0.0,95,0.00,,,0.00,Wunderground v.1.15,2013-05-10 07:23:00,
2013-05-10 03:28:00,47.4,46.0,29.97,NE,36,0.0,0.0,95,0.00,,,0.00,Wunderground v.1.15,2013-05-10 07:28:00,
2013-05-10 03:35:00,47.7,46.3,29.98,NE,36,0.0,0.0,95,0.00,,,0.00,Wunderground v.1.15,2013-05-10 07:35:00,
2013-05-10 03:41:00,48.2,47.1,29.98,NE,36,0.0,0.0,96,0.00,,,0.00,Wunderground v.1.15,2013-05-10 07:41:00,
2013-05-10 03:47:00,47.6,46.2,29.98,NE,36,0.0,0.0,95,0.00,,,0.00,Wunderground v.1.15,2013-05-10 07:47:00,
2013-05-10 03:52:00,47.2,45.8,29.98,NE,36,0.0,0.0,95,0.00,,,0.00,Wunderground v.1.15,2013-05-10 07:52:00,
2013-05-10 03:57:00,47.0,45.6,29.98,NE,36,0.0,0.0,95,0.00,,,0.00,Wunderground v.1.15,2013-05-10 07:57:00,
2013-05-10 04:03:00,47.0,45.6,29.98,NE,36,0.0,0.0,95,0.00,,,0.00,Wunderground v.1.15,2013-05-10 08:03:00,
2013-05-10 04:08:00,47.0,45.6,29.98,NE,36,0.0,0.0,95,0.00,,,0.00,Wunderground v.1.15,2013-05-10 08:08:00,
2013-05-10 04:13:00,46.9,45.5,29.98,NE,36,0.0,0.0,95,0.00,,,0.00,Wunderground v.1.15,2013-05-10 08:13:00,
2013-05-10 04:20:00,46.8,45.4,29.98,NE,36,0.0,0.0,95,0.00,,,0.00,Wunderground v.1.15,2013-05-10 08:20:00,
2013-05-10 04:25:00,46.5,45.1,29.98,NE,36,0.0,0.0,95,0.00,,,0.00,Wunderground v.1.15,2013-05-10 08:25:00,
2013-05-10 04:30:00,46.4,45.0,29.98,NE,36,0.0,1.0,95,0.00,,,0.00,Wunderground v.1.15,2013-05-10 08:30:00,
2013-05-10 04:35:00,46.4,45.0,29.98,NE,36,0.0,0.0,95,0.00,,,0.00,Wunderground v.1.15,2013-05-10 08:35:00,
2013-05-10 04:40:00,46.5,45.1,29.98,NE,36,0.0,0.0,95,0.00,,,0.00,Wunderground v.1.15,2013-05-10 08:40:00,
2013-05-10 04:45:00,46.5,45.1,29.97,NE,36,0.0,0.0,95,0.00,,,0.00,Wunderground v.1.15,2013-05-10 08:45:00,
2013-05-10 04:51:00,46.7,45.6,29.98,NE,36,0.0,0.0,96,0.00,,,0.00,Wunderground v.1.15,2013-05-10 08:51:00,
2013-05-10 04:56:00,46.8,45.7,29.98,NE,36,0.0,0.0,96,0.00,,,0.00,Wunderground v.1.15,2013-05-10 08:56:00,
2013-05-10 05:02:00,46.8,45.7,29.98,NE,36,0.0,0.0,96,0.00,,,0.00,Wunderground v.1.15,2013-05-10 09:02:00,
2013-05-10 05:07:00,47.0,45.9,29.98,NE,36,0.0,0.0,96,0.00,,,0.00,Wunderground v.1.15,2013-05-10 09:07:00,
2013-05-10 05:12:00,47.0,45.9,29.98,NE,36,0.0,0.0,96,0.00,,,0.00,Wunderground v.1.15,2013-05-10 09:12:00,
2013-05-10 05:18:00,46.8,45.7,29.98,NE,36,0.0,0.0,96,0.00,,,0.00,Wunderground v.1.15,2013-05-10 09:18:00,
2013-05-10 05:23:00,46.8,45.7,29.98,NE,36,0.0,0.0,96,0.00,,,0.00,Wunderground v.1.15,2013-05-10 09:23:00,
2013-05-10 05:29:00,46.9,45.8,29.97,NE,36,0.0,0.0,96,0.00,,,0.00,Wunderground v.1.15,2013-05-10 09:29:00,
2013-05-10 05:35:00,46.9,45.8,29.97,NE,36,0.0,0.0,96,0.00,,,0.00,Wunderground v.1.15,2013-05-10 09:35:00,
2013-05-10 05:41:00,46.9,45.8,29.97,NE,36,0.0,0.0,96,0.00,,,0.00,Wunderground v.1.15,2013-05-10 09:41:00,
2013-05-10 05:47:00,46.8,45.7,29.97,NE,36,0.0,0.0,96,0.00,,,0.00,Wunderground v.1.15,2013-05-10 09:47:00,
2013-05-10 05:52:00,46.8,45.7,29.98,NE,36,0.0,0.0,96,0.00,,,0.00,Wunderground v.1.15,2013-05-10 09:52:00,
2013-05-10 05:57:00,47.0,45.9,29.98,NE,36,0.0,0.0,96,0.00,,,0.00,Wunderground v.1.15,2013-05-10 09:57:00,
2013-05-10 06:03:00,47.0,45.9,29.98,NE,36,0.0,0.0,96,0.00,,,0.00,Wunderground v.1.15,2013-05-10 10:03:00,
2013-05-10 06:08:00,47.3,46.2,29.98,NE,36,0.0,0.0,96,0.00,,,0.00,Wunderground v.1.15,2013-05-10 10:08:00,
2013-05-10 06:14:00,47.5,46.4,29.98,NE,36,0.0,0.0,96,0.00,,,0.00,Wunderground v.1.15,2013-05-10 10:14:00,
2013-05-10 06:20:00,47.7,46.6,29.98,NE,36,0.0,0.0,96,0.00,,,0.00,Wunderground v.1.15,2013-05-10 10:20:00,
2013-05-10 06:25:00,47.8,46.7,29.98,NE,36,0.0,0.0,96,0.00,,,0.00,Wunderground v.1.15,2013-05-10 10:25:00,
2013-05-10 06:30:00,47.9,46.8,29.98,NE,36,0.0,0.0,96,0.00,,,0.00,Wunderground v.1.15,2013-05-10 10:30:00,
2013-05-10 06:35:00,47.9,46.8,29.98,NE,36,0.0,0.0,96,0.00,,,0.00,Wunderground v.1.15,2013-05-10 10:35:00,
2013-05-10 06:41:00,47.9,46.8,29.98,NE,36,0.0,0.0,96,0.00,,,0.00,Wunderground v.1.15,2013-05-10 10:41:00,
2013-05-10 06:47:00,48.0,46.9,29.98,NE,36,0.0,0.0,96,0.00,,,0.00,Wunderground v.1.15,2013-05-10 10:47:00,
2013-05-10 06:52:00,48.3,47.2,29.98,NE,36,0.0,0.0,96,0.00,,,0.00,Wunderground v.1.15,2013-05-10 10:52:00,
2013-05-10 06:57:00,48.4,47.3,29.98,West,263,0.0,0.0,96,0.00,,,0.00,Wunderground v.1.15,2013-05-10 10:57:00,
2013-05-10 07:03:00,48.5,47.4,29.98,West,263,0.0,0.0,96,0.00,,,0.00,Wunderground v.1.15,2013-05-10 11:03:00,
2013-05-10 07:09:00,48.7,47.6,29.98,West,263,0.0,0.0,96,0.00,,,0.00,Wunderground v.1.15,2013-05-10 11:09:00,
2013-05-10 07:14:00,49.0,47.9,29.98,West,263,0.0,0.0,96,0.00,,,0.00,Wunderground v.1.15,2013-05-10 11:14:00,
2013-05-10 07:20:00,49.3,48.5,29.98,West,263,0.0,0.0,97,0.00,,,0.00,Wunderground v.1.15,2013-05-10 11:20:00,
2013-05-10 07:25:00,49.6,48.8,29.98,West,263,0.0,0.0,97,0.00,,,0.00,Wunderground v.1.15,2013-05-10 11:25:00,
2013-05-10 07:30:00,50.4,49.6,29.98,West,263,0.0,0.0,97,0.00,,,0.00,Wunderground v.1.15,2013-05-10 11:30:00,
2013-05-10 07:35:00,50.9,50.1,29.98,West,263,0.0,0.0,97,0.00,,,0.00,Wunderground v.1.15,2013-05-10 11:35:00,
2013-05-10 07:41:00,51.4,50.6,29.98,West,263,0.0,0.0,97,0.00,,,0.00,Wunderground v.1.15,2013-05-10 11:41:00,
2013-05-10 07:47:00,52.7,51.9,29.98,West,263,0.0,0.0,97,0.00,,,0.00,Wunderground v.1.15,2013-05-10 11:47:00,
2013-05-10 07:52:00,53.6,52.8,29.98,West,263,0.0,0.0,97,0.00,,,0.00,Wunderground v.1.15,2013-05-10 11:52:00,
2013-05-10 07:58:00,54.5,54.5,29.99,West,263,0.0,0.0,100,0.00,,,0.00,Wunderground v.1.15,2013-05-10 11:58:00,
2013-05-10 08:03:00,55.3,54.7,29.98,West,263,0.0,0.0,98,0.00,,,0.00,Wunderground v.1.15,2013-05-10 12:03:00,
2013-05-10 08:09:00,56.7,56.1,29.99,West,263,0.0,0.0,98,0.00,,,0.00,Wunderground v.1.15,2013-05-10 12:09:00,
2013-05-10 08:15:00,57.6,56.8,29.98,West,263,0.0,1.0,97,0.00,,,0.00,Wunderground v.1.15,2013-05-10 12:15:00,
2013-05-10 08:21:00,58.7,57.9,29.98,West,263,0.0,1.0,97,0.00,,,0.00,Wunderground v.1.15,2013-05-10 12:21:00,
2013-05-10 08:27:00,59.5,57.5,29.98,West,263,0.0,1.0,93,0.00,,,0.00,Wunderground v.1.15,2013-05-10 12:27:00,
2013-05-10 08:33:00,60.6,57.0,29.98,West,263,0.0,0.0,88,0.00,,,0.00,Wunderground v.1.15,2013-05-10 12:33:00,
2013-05-10 08:39:00,61.8,57.2,29.98,West,263,0.0,0.0,85,0.00,,,0.00,Wunderground v.1.15,2013-05-10 12:39:00,
2013-05-10 08:45:00,62.9,57.0,29.98,West,263,0.0,1.0,81,0.00,,,0.00,Wunderground v.1.15,2013-05-10 12:45:00,
2013-05-10 08:51:00,63.8,57.5,29.98,West,263,0.0,1.0,80,0.00,,,0.00,Wunderground v.1.15,2013-05-10 12:51:00,
2013-05-10 08:56:00,64.8,57.8,29.98,West,263,0.0,2.0,78,0.00,,,0.00,Wunderground v.1.15,2013-05-10 12:56:00,
2013-05-10 09:02:00,65.9,58.1,29.98,West,263,1.0,1.0,76,0.00,,,0.00,Wunderground v.1.15,2013-05-10 13:02:00,
2013-05-10 09:07:00,67.1,58.2,29.98,SSW,210,1.0,3.0,73,0.00,,,0.00,Wunderground v.1.15,2013-05-10 13:07:00,
2013-05-10 09:12:00,67.7,58.0,29.98,SSW,207,1.0,3.0,71,0.00,,,0.00,Wunderground v.1.15,2013-05-10 13:12:00,
2013-05-10 09:18:00,67.5,57.4,29.98,South,188,1.0,3.0,70,0.00,,,0.00,Wunderground v.1.15,2013-05-10 13:18:00,
2013-05-10 09:24:00,67.5,57.0,29.99,South,188,2.0,2.0,69,0.00,,,0.00,Wunderground v.1.15,2013-05-10 13:24:00,
2013-05-10 09:29:00,67.8,57.7,29.98,South,188,1.0,2.0,70,0.00,,,0.00,Wunderground v.1.15,2013-05-10 13:29:00,
2013-05-10 09:35:00,68.7,58.5,29.98,South,188,1.0,2.0,70,0.00,,,0.00,Wunderground v.1.15,2013-05-10 13:35:00,
2013-05-10 09:40:00,69.3,59.1,29.98,South,188,1.0,2.0,70,0.00,,,0.00,Wunderground v.1.15,2013-05-10 13:40:00,
2013-05-10 09:46:00,70.0,57.7,29.98,SE,132,2.0,4.0,65,0.00,,,0.00,Wunderground v.1.15,2013-05-10 13:46:00,
2013-05-10 09:52:00,70.0,58.1,29.98,SSE,154,2.0,2.0,66,0.00,,,0.00,Wunderground v.1.15,2013-05-10 13:52:00,
2013-05-10 09:57:00,70.1,58.6,29.98,SSE,154,1.0,2.0,67,0.00,,,0.00,Wunderground v.1.15,2013-05-10 13:57:00,
2013-05-10 10:02:00,70.3,58.0,29.97,SSE,154,1.0,2.0,65,0.00,,,0.00,Wunderground v.1.15,2013-05-10 14:02:00,
2013-05-10 10:07:00,70.6,58.7,29.97,SSE,155,1.0,3.0,66,0.00,,,0.00,Wunderground v.1.15,2013-05-10 14:07:00,
2013-05-10 10:12:00,71.4,58.6,29.97,SSE,155,1.0,1.0,64,0.00,,,0.00,Wunderground v.1.15,2013-05-10 14:12:00,
2013-05-10 10:17:00,71.8,59.4,29.97,SSE,154,1.0,3.0,65,0.00,,,0.00,Wunderground v.1.15,2013-05-10 14:17:00,
2013-05-10 10:22:00,71.7,58.9,29.97,SE,144,2.0,2.0,64,0.00,,,0.00,Wunderground v.1.15,2013-05-10 14:22:00,
2013-05-10 10:27:00,72.0,59.2,29.97,SSE,154,2.0,2.0,64,0.00,,,0.00,Wunderground v.1.15,2013-05-10 14:27:00,
2013-05-10 10:33:00,71.7,58.9,29.97,SE,128,2.0,5.0,64,0.00,,,0.00,Wunderground v.1.15,2013-05-10 14:33:00,
2013-05-10 10:39:00,72.1,60.1,29.97,SE,128,2.0,5.0,66,0.00,,,0.00,Wunderground v.1.15,2013-05-10 14:39:00,
2013-05-10 10:44:00,72.8,60.3,29.97,SE,128,1.0,2.0,65,0.00,,,0.00,Wunderground v.1.15,2013-05-10 14:44:00,
2013-05-10 10:50:00,73.4,60.9,29.97,SE,128,0.0,2.0,65,0.00,,,0.00,Wunderground v.1.15,2013-05-10 14:50:00,
2013-05-10 10:55:00,73.7,61.2,29.97,West,267,1.0,4.0,65,0.00,,,0.00,Wunderground v.1.15,2013-05-10 14:55:00,
2013-05-10 11:00:00,74.4,61.0,29.96,West,267,1.0,4.0,63,0.00,,,0.00,Wunderground v.1.15,2013-05-10 15:00:00,
2013-05-10 11:05:00,75.3,61.8,29.96,West,267,1.0,1.0,63,0.00,,,0.00,Wunderground v.1.15,2013-05-10 15:05:00,
2013-05-10 11:11:00,75.9,59.1,29.96,South,171,1.0,1.0,56,0.00,,,0.00,Wunderground v.1.15,2013-05-10 15:11:00,
2013-05-10 11:17:00,75.8,59.5,29.96,SSE,163,1.0,3.0,57,0.00,,,0.00,Wunderground v.1.15,2013-05-10 15:17:00,
2013-05-10 11:22:00,76.0,61.6,29.96,WSW,240,1.0,1.0,61,0.00,,,0.00,Wunderground v.1.15,2013-05-10 15:22:00,
2013-05-10 11:27:00,76.2,60.8,29.96,WSW,250,1.0,2.0,59,0.00,,,0.00,Wunderground v.1.15,2013-05-10 15:27:00,
2013-05-10 11:32:00,76.3,61.9,29.96,SW,223,1.0,1.0,61,0.00,,,0.00,Wunderground v.1.15,2013-05-10 15:32:00,
2013-05-10 11:37:00,76.1,59.3,29.96,SW,234,1.0,3.0,56,0.00,,,0.00,Wunderground v.1.15,2013-05-10 15:37:00,
2013-05-10 11:43:00,76.1,61.7,29.95,SW,235,1.0,1.0,61,0.00,,,0.00,Wunderground v.1.15,2013-05-10 15:43:00,
2013-05-10 11:48:00,76.6,58.7,29.95,WSW,240,1.0,4.0,54,0.00,,,0.00,Wunderground v.1.15,2013-05-10 15:48:00,
2013-05-10 11:54:00,77.1,61.7,29.95,WSW,239,1.0,1.0,59,0.00,,,0.00,Wunderground v.1.15,2013-05-10 15:54:00,
2013-05-10 12:00:00,77.8,61.8,29.95,SSW,200,1.0,3.0,58,0.00,,,0.00,Wunderground v.1.15,2013-05-10 16:00:00,
2013-05-10 12:05:00,78.3,60.8,29.94,SW,234,1.0,1.0,55,0.00,,,0.00,Wunderground v.1.15,2013-05-10 16:05:00,
2013-05-10 12:11:00,78.3,59.2,29.94,SSW,194,1.0,1.0,52,0.00,,,0.00,Wunderground v.1.15,2013-05-10 16:11:00,
2013-05-10 12:17:00,78.3,59.2,29.94,South,178,1.0,3.0,52,0.00,,,0.00,Wunderground v.1.15,2013-05-10 16:17:00,
2013-05-10 12:22:00,77.7,59.2,29.94,SSE,160,2.0,5.0,53,0.00,,,0.00,Wunderground v.1.15,2013-05-10 16:22:00,
2013-05-10 12:28:00,77.6,59.6,29.93,SSE,155,3.0,5.0,54,0.00,,,0.00,Wunderground v.1.15,2013-05-10 16:28:00,
2013-05-10 12:35:00,78.2,59.7,29.93,SE,137,2.0,4.0,53,0.00,,,0.00,Wunderground v.1.15,2013-05-10 16:35:00,
2013-05-10 12:41:00,78.7,60.1,29.93,SE,142,1.0,1.0,53,0.00,,,0.00,Wunderground v.1.15,2013-05-10 16:41:00,
2013-05-10 12:46:00,79.7,61.6,29.92,SSW,208,1.0,3.0,54,0.00,,,0.00,Wunderground v.1.15,2013-05-10 16:46:00,
2013-05-10 12:52:00,80.1,60.3,29.92,SE,144,1.0,4.0,51,0.00,,,0.00,Wunderground v.1.15,2013-05-10 16:52:00,
2013-05-10 12:57:00,80.2,58.1,29.92,West,275,1.0,4.0,47,0.00,,,0.00,Wunderground v.1.15,2013-05-10 16:57:00,
2013-05-10 13:03:00,80.5,60.1,29.92,NW,304,1.0,3.0,50,0.00,,,0.00,Wunderground v.1.15,2013-05-10 17:03:00,
2013-05-10 13:08:00,80.0,60.2,29.92,WNW,298,2.0,5.0,51,0.00,,,0.00,Wunderground v.1.15,2013-05-10 17:08:00,
2013-05-10 13:13:00,80.2,61.5,29.92,WNW,302,2.0,3.0,53,0.00,,,0.00,Wunderground v.1.15,2013-05-10 17:13:00,
2013-05-10 13:20:00,80.7,61.4,29.92,West,265,1.0,3.0,52,0.00,,,0.00,Wunderground v.1.15,2013-05-10 17:20:00,
2013-05-10 13:26:00,81.0,60.0,29.92,WNW,300,1.0,6.0,49,0.00,,,0.00,Wunderground v.1.15,2013-05-10 17:26:00,
2013-05-10 13:32:00,81.1,62.3,29.92,WNW,282,2.0,2.0,53,0.00,,,0.00,Wunderground v.1.15,2013-05-10 17:32:00,
2013-05-10 13:37:00,81.0,60.6,29.91,WNW,283,2.0,6.0,50,0.00,,,0.00,Wunderground v.1.15,2013-05-10 17:37:00,
2013-05-10 13:43:00,81.3,59.1,29.91,WNW,289,2.0,6.0,47,0.00,,,0.00,Wunderground v.1.15,2013-05-10 17:43:00,
2013-05-10 13:50:00,81.4,59.8,29.91,SSE,150,3.0,6.0,48,0.00,,,0.00,Wunderground v.1.15,2013-05-10 17:50:00,
2013-05-10 13:56:00,82.2,58.1,29.91,SSE,150,1.0,3.0,44,0.00,,,0.00,Wunderground v.1.15,2013-05-10 17:56:00,
2013-05-10 14:02:00,82.4,60.7,29.90,SW,226,1.0,1.0,48,0.00,,,0.00,Wunderground v.1.15,2013-05-10 18:02:00,
2013-05-10 14:07:00,82.4,58.3,29.90,SSE,148,2.0,5.0,44,0.00,,,0.00,Wunderground v.1.15,2013-05-10 18:07:00,
2013-05-10 14:12:00,81.8,57.8,29.90,SE,144,2.0,2.0,44,0.00,,,0.00,Wunderground v.1.15,2013-05-10 18:12:00,
2013-05-10 14:18:00,82.1,58.7,29.90,SSW,199,1.0,3.0,45,0.00,,,0.00,Wunderground v.1.15,2013-05-10 18:18:00,
2013-05-10 14:23:00,82.5,58.4,29.89,SSW,195,1.0,3.0,44,0.00,,,0.00,Wunderground v.1.15,2013-05-10 18:23:00,
2013-05-10 14:28:00,82.5,58.4,29.89,SE,142,2.0,4.0,44,0.00,,,0.00,Wunderground v.1.15,2013-05-10 18:28:00,
2013-05-10 14:35:00,82.6,59.1,29.88,SE,142,2.0,10.0,45,0.00,,,0.00,Wunderground v.1.15,2013-05-10 18:35:00,
2013-05-10 14:41:00,82.7,61.0,29.88,South,182,2.0,10.0,48,0.00,,,0.00,Wunderground v.1.15,2013-05-10 18:41:00,
2013-05-10 14:47:00,82.6,60.3,29.88,SSE,147,1.0,4.0,47,0.00,,,0.00,Wunderground v.1.15,2013-05-10 18:47:00,
2013-05-10 14:52:00,82.3,58.2,29.88,SE,140,2.0,2.0,44,0.00,,,0.00,Wunderground v.1.15,2013-05-10 18:52:00,
2013-05-10 14:58:00,81.7,57.7,29.87,SE,146,2.0,7.0,44,0.00,,,0.00,Wunderground v.1.15,2013-05-10 18:58:00,
2013-05-10 15:05:00,81.5,58.7,29.86,SE,142,1.0,4.0,46,0.00,,,0.00,Wunderground v.1.15,2013-05-10 19:05:00,
2013-05-10 15:12:00,81.0,60.0,29.86,SE,142,2.0,2.0,49,0.00,,,0.00,Wunderground v.1.15,2013-05-10 19:12:00,
2013-05-10 15:17:00,80.7,58.6,29.86,SE,142,1.0,2.0,47,0.00,,,0.00,Wunderground v.1.15,2013-05-10 19:17:00,
2013-05-10 15:22:00,80.6,58.5,29.86,SSE,161,1.0,2.0,47,0.00,,,0.00,Wunderground v.1.15,2013-05-10 19:22:00,
2013-05-10 15:27:00,80.3,59.4,29.85,SSE,148,2.0,3.0,49,0.00,,,0.00,Wunderground v.1.15,2013-05-10 19:27:00,
2013-05-10 15:32:00,80.0,59.1,29.85,SSE,147,2.0,5.0,49,0.00,,,0.00,Wunderground v.1.15,2013-05-10 19:32:00,
2013-05-10 15:38:00,79.7,58.8,29.85,SSE,147,1.0,5.0,49,0.00,,,0.00,Wunderground v.1.15,2013-05-10 19:38:00,
2013-05-10 15:44:00,79.1,61.0,29.85,SSE,147,0.0,1.0,54,0.00,,,0.00,Wunderground v.1.15,2013-05-10 19:44:00,
2013-05-10 15:50:00,78.8,60.2,29.85,SSE,147,0.0,2.0,53,0.00,,,0.00,Wunderground v.1.15,2013-05-10 19:50:00,
2013-05-10 15:56:00,79.1,60.5,29.85,SSE,147,1.0,3.0,53,0.00,,,0.00,Wunderground v.1.15,2013-05-10 19:56:00,
2013-05-10 16:02:00,79.3,60.1,29.85,SSE,147,1.0,2.0,52,0.00,,,0.00,Wunderground v.1.15,2013-05-10 20:02:00,
2013-05-10 16:07:00,78.2,62.7,29.84,SSE,153,1.0,3.0,59,0.00,,,0.00,Wunderground v.1.15,2013-05-10 20:07:00,
2013-05-10 16:13:00,77.4,61.0,29.84,SSE,153,1.0,1.0,57,0.00,,,0.00,Wunderground v.1.15,2013-05-10 20:13:00,
2013-05-10 16:18:00,77.5,63.9,29.84,SSE,153,0.0,1.0,63,0.00,,,0.00,Wunderground v.1.15,2013-05-10 20:18:00,
2013-05-10 16:24:00,77.3,66.7,29.84,SSE,153,0.0,0.0,70,0.00,,,0.00,Wunderground v.1.15,2013-05-10 20:24:00,
2013-05-10 16:29:00,77.3,64.2,29.84,SSE,156,0.0,0.0,64,0.00,,,0.00,Wunderground v.1.15,2013-05-10 20:29:00,
2013-05-10 16:35:00,77.1,64.0,29.84,SSE,156,0.0,1.0,64,0.00,,,0.00,Wunderground v.1.15,2013-05-10 20:35:00,
2013-05-10 16:41:00,77.1,63.5,29.84,SSE,156,0.0,0.0,63,0.00,,,0.00,Wunderground v.1.15,2013-05-10 20:41:00,
2013-05-10 16:47:00,77.3,63.3,29.84,SSE,156,0.0,0.0,62,0.00,,,0.00,Wunderground v.1.15,2013-05-10 20:47:00,
2013-05-10 16:52:00,77.6,64.5,29.84,SSE,156,0.0,0.0,64,0.00,,,0.00,Wunderground v.1.15,2013-05-10 20:52:00,
2013-05-10 16:57:00,77.6,62.1,29.84,SSE,156,0.0,0.0,59,0.00,,,0.00,Wunderground v.1.15,2013-05-10 20:57:00,
2013-05-10 17:03:00,77.5,62.0,29.84,SSE,156,0.0,0.0,59,0.00,,,0.00,Wunderground v.1.15,2013-05-10 21:03:00,
2013-05-10 17:08:00,77.5,61.1,29.84,SSE,156,0.0,1.0,57,0.00,,,0.00,Wunderground v.1.15,2013-05-10 21:08:00,
2013-05-10 17:14:00,77.3,61.9,29.86,WNW,283,1.0,5.0,59,0.00,,,0.00,Wunderground v.1.15,2013-05-10 21:14:00,
2013-05-10 17:20:00,75.5,61.1,29.87,WNW,297,5.0,16.0,61,0.00,,,0.00,Wunderground v.1.15,2013-05-10 21:20:00,
2013-05-10 17:26:00,70.2,62.6,29.85,NE,48,7.0,13.0,77,0.27,,,0.09,Wunderground v.1.15,2013-05-10 21:26:00,
2013-05-10 17:32:00,68.5,62.4,29.84,NNW,341,3.0,3.0,81,0.09,,,0.09,Wunderground v.1.15,2013-05-10 21:32:00,
2013-05-10 17:37:00,68.3,62.6,29.84,NW,321,1.0,3.0,82,0.05,,,0.09,Wunderground v.1.15,2013-05-10 21:37:00,
2013-05-10 17:42:00,68.4,63.4,29.84,WNW,296,1.0,1.0,84,0.04,,,0.09,Wunderground v.1.15,2013-05-10 21:42:00,
2013-05-10 17:48:00,68.3,62.9,29.84,WNW,296,1.0,2.0,83,0.00,,,0.09,Wunderground v.1.15,2013-05-10 21:48:00,
2013-05-10 17:53:00,68.3,62.9,29.84,WNW,296,0.0,0.0,83,0.00,,,0.09,Wunderground v.1.15,2013-05-10 21:53:00,
2013-05-10 17:58:00,68.4,63.7,29.84,WNW,296,0.0,1.0,85,0.00,,,0.09,Wunderground v.1.15,2013-05-10 21:58:00,
2013-05-10 17:59:00,68.4,63.4,29.84,WNW,296,0.0,1.0,84,0.00,,,0.09,Wunderground v.1.15,2013-05-10 21:59:00,
2013-05-10 18:05:00,68.6,63.9,29.83,WNW,296,0.0,0.0,85,0.00,,,0.09,Wunderground v.1.15,2013-05-10 22:05:00,
2013-05-10 18:06:00,68.7,64.0,29.83,WNW,296,0.0,0.0,85,0.00,,,0.09,Wunderground v.1.15,2013-05-10 22:06:00,
2013-05-10 18:11:00,68.9,64.2,29.83,WNW,296,0.0,1.0,85,0.00,,,0.09,Wunderground v.1.15,2013-05-10 22:11:00,
2013-05-10 18:13:00,69.0,64.6,29.83,WNW,296,0.0,0.0,86,0.00,,,0.09,Wunderground v.1.15,2013-05-10 22:13:00,
2013-05-10 18:18:00,69.1,64.1,29.82,WNW,296,0.0,0.0,84,0.00,,,0.09,Wunderground v.1.15,2013-05-10 22:18:00,
2013-05-10 18:23:00,69.2,64.8,29.82,WNW,296,0.0,0.0,86,0.00,,,0.09,Wunderground v.1.15,2013-05-10 22:23:00,
2013-05-10 18:29:00,69.0,64.6,29.82,WNW,296,0.0,0.0,86,0.00,,,0.09,Wunderground v.1.15,2013-05-10 22:29:00,
2013-05-10 18:35:00,68.8,64.4,29.82,WNW,296,0.0,0.0,86,0.00,,,0.09,Wunderground v.1.15,2013-05-10 22:35:00,
2013-05-10 18:41:00,68.6,64.2,29.82,WNW,296,0.0,0.0,86,0.00,,,0.09,Wunderground v.1.15,2013-05-10 22:41:00,
2013-05-10 18:47:00,68.3,63.6,29.82,WNW,296,0.0,0.0,85,0.00,,,0.09,Wunderground v.1.15,2013-05-10 22:47:00,
2013-05-10 18:52:00,68.1,63.4,29.82,WNW,296,0.0,0.0,85,0.00,,,0.09,Wunderground v.1.15,2013-05-10 22:52:00,
2013-05-10 18:58:00,67.9,63.6,29.83,WNW,296,0.0,1.0,86,0.00,,,0.09,Wunderground v.1.15,2013-05-10 22:58:00,
2013-05-10 19:03:00,67.1,63.1,29.86,WNW,295,3.0,13.0,87,0.00,,,0.09,Wunderground v.1.15,2013-05-10 23:03:00,
2013-05-10 19:08:00,66.6,62.9,29.88,NNW,334,8.0,13.0,88,3.37,,,0.12,Wunderground v.1.15,2013-05-10 23:08:00,
2013-05-10 19:15:00,65.9,62.6,29.86,West,278,6.0,6.0,89,0.20,,,0.20,Wunderground v.1.15,2013-05-10 23:15:00,
2013-05-10 19:20:00,65.5,62.2,29.87,WNW,294,2.0,6.0,89,0.09,,,0.21,Wunderground v.1.15,2013-05-10 23:20:00,
2013-05-10 19:25:00,65.3,62.3,29.89,West,263,1.0,6.0,90,0.09,,,0.21,Wunderground v.1.15,2013-05-10 23:25:00,
2013-05-10 19:30:00,65.0,62.0,29.90,West,269,2.0,6.0,90,0.05,,,0.21,Wunderground v.1.15,2013-05-10 23:30:00,
2013-05-10 19:36:00,64.9,62.2,29.90,SSW,209,1.0,2.0,91,0.04,,,0.22,Wunderground v.1.15,2013-05-10 23:36:00,
2013-05-10 19:41:00,64.9,62.2,29.90,SSW,209,0.0,2.0,91,0.04,,,0.22,Wunderground v.1.15,2013-05-10 23:41:00,
2013-05-10 19:46:00,65.0,62.3,29.89,SSW,209,0.0,0.0,91,0.04,,,0.22,Wunderground v.1.15,2013-05-10 23:46:00,
2013-05-10 19:52:00,64.8,62.1,29.89,SSW,209,0.0,0.0,91,0.05,,,0.23,Wunderground v.1.15,2013-05-10 23:52:00,
2013-05-10 19:57:00,64.6,61.6,29.89,SSW,209,0.0,0.0,90,0.10,,,0.24,Wunderground v.1.15,2013-05-10 23:57:00,
2013-05-10 20:03:00,64.5,61.8,29.88,SSW,209,0.0,0.0,91,0.07,,,0.24,Wunderground v.1.15,2013-05-11 00:03:00,
2013-05-10 20:08:00,64.5,61.8,29.88,SSW,209,0.0,1.0,91,0.04,,,0.24,Wunderground v.1.15,2013-05-11 00:08:00,
2013-05-10 20:13:00,64.5,62.1,29.88,SSW,209,0.0,0.0,92,0.00,,,0.24,Wunderground v.1.15,2013-05-11 00:13:00,
2013-05-10 20:18:00,64.4,62.0,29.89,SSW,209,0.0,0.0,92,0.00,,,0.24,Wunderground v.1.15,2013-05-11 00:18:00,
2013-05-10 20:24:00,64.3,62.2,29.90,SSW,209,0.0,0.0,93,0.00,,,0.24,Wunderground v.1.15,2013-05-11 00:24:00,
2013-05-10 20:29:00,64.1,62.0,29.90,SSW,209,0.0,1.0,93,0.00,,,0.25,Wunderground v.1.15,2013-05-11 00:29:00,
2013-05-10 20:42:00,64.0,62.2,29.89,SSW,209,0.0,0.0,94,0.07,,,0.26,Wunderground v.1.15,2013-05-11 00:42:00,
2013-05-10 20:47:00,64.0,62.2,29.90,SSW,209,0.0,0.0,94,0.05,,,0.27,Wunderground v.1.15,2013-05-11 00:47:00,
2013-05-10 20:53:00,63.9,62.1,29.89,SSW,209,0.0,0.0,94,0.13,,,0.28,Wunderground v.1.15,2013-05-11 00:53:00,
2013-05-10 20:59:00,63.8,62.0,29.89,SSW,209,0.0,0.0,94,0.06,,,0.28,Wunderground v.1.15,2013-05-11 00:59:00,
2013-05-10 21:05:00,63.8,62.0,29.89,SSW,209,0.0,0.0,94,0.04,,,0.28,Wunderground v.1.15,2013-05-11 01:05:00,
2013-05-10 21:11:00,63.6,61.8,29.89,SSW,209,0.0,0.0,94,0.00,,,0.28,Wunderground v.1.15,2013-05-11 01:11:00,
2013-05-10 21:16:00,63.6,61.8,29.90,SSW,209,0.0,0.0,94,0.00,,,0.28,Wunderground v.1.15,2013-05-11 01:16:00,
2013-05-10 21:22:00,63.5,61.7,29.91,SSW,209,0.0,0.0,94,0.00,,,0.29,Wunderground v.1.15,2013-05-11 01:22:00,
2013-05-10 21:27:00,63.5,61.7,29.90,SSW,209,0.0,0.0,94,0.15,,,0.30,Wunderground v.1.15,2013-05-11 01:27:00,
2013-05-10 21:35:00,63.4,61.9,29.91,SSW,209,0.0,0.0,95,0.05,,,0.30,Wunderground v.1.15,2013-05-11 01:35:00,
2013-05-10 21:41:00,63.2,61.7,29.91,SSW,209,1.0,2.0,95,0.27,,,0.32,Wunderground v.1.15,2013-05-11 01:41:00,
2013-05-10 21:47:00,63.1,61.6,29.90,SSW,209,1.0,1.0,95,0.12,,,0.33,Wunderground v.1.15,2013-05-11 01:47:00,
2013-05-10 21:52:00,63.0,61.5,29.90,SSW,209,0.0,0.0,95,0.15,,,0.35,Wunderground v.1.15,2013-05-11 01:52:00,
2013-05-10 21:57:00,63.0,61.5,29.91,SSW,209,0.0,0.0,95,0.19,,,0.36,Wunderground v.1.15,2013-05-11 01:57:00,
2013-05-10 22:02:00,63.0,61.5,29.90,SSW,209,0.0,0.0,95,0.31,,,0.38,Wunderground v.1.15,2013-05-11 02:02:00,
2013-05-10 22:08:00,63.0,61.5,29.91,SSW,209,0.0,0.0,95,0.09,,,0.38,Wunderground v.1.15,2013-05-11 02:08:00,
2013-05-10 22:13:00,62.9,61.4,29.91,SSW,209,0.0,0.0,95,0.09,,,0.39,Wunderground v.1.15,2013-05-11 02:13:00,
2013-05-10 22:18:00,62.9,61.4,29.90,SSW,209,0.0,1.0,95,0.09,,,0.40,Wunderground v.1.15,2013-05-11 02:18:00,
2013-05-10 22:24:00,62.8,61.3,29.89,SSW,209,0.0,0.0,95,0.06,,,0.40,Wunderground v.1.15,2013-05-11 02:24:00,
2013-05-10 22:32:00,62.7,61.2,29.88,SSW,209,0.0,1.0,95,0.04,,,0.41,Wunderground v.1.15,2013-05-11 02:32:00,
2013-05-10 22:37:00,62.6,61.1,29.86,SSW,209,0.0,2.0,95,0.04,,,0.41,Wunderground v.1.15,2013-05-11 02:37:00,
2013-05-10 22:42:00,62.6,61.1,29.86,SSW,209,0.0,0.0,95,0.10,,,0.42,Wunderground v.1.15,2013-05-11 02:42:00,
2013-05-10 22:47:00,62.6,61.1,29.85,SSW,209,0.0,0.0,95,0.06,,,0.42,Wunderground v.1.15,2013-05-11 02:47:00,
2013-05-10 22:53:00,62.4,60.9,29.86,SSW,209,0.0,0.0,95,0.04,,,0.42,Wunderground v.1.15,2013-05-11 02:53:00,
2013-05-10 22:59:00,62.3,60.8,29.85,SSW,209,0.0,0.0,95,0.00,,,0.42,Wunderground v.1.15,2013-05-11 02:59:00,
2013-05-10 23:05:00,62.2,60.8,29.84,SSW,209,0.0,1.0,95,0.00,,,0.42,Wunderground v.1.15,2013-05-11 03:05:00,
2013-05-10 23:11:00,62.1,60.7,29.84,SSW,209,0.0,0.0,95,0.00,,,0.42,Wunderground v.1.15,2013-05-11 03:11:00,
2013-05-10 23:17:00,62.0,60.6,29.85,SSW,209,0.0,0.0,95,0.00,,,0.42,Wunderground v.1.15,2013-05-11 03:17:00,
2013-05-10 23:22:00,62.1,60.7,29.85,SSW,209,0.0,0.0,95,0.00,,,0.42,Wunderground v.1.15,2013-05-11 03:22:00,
2013-05-10 23:28:00,62.1,60.7,29.85,SSW,209,0.0,0.0,95,0.00,,,0.42,Wunderground v.1.15,2013-05-11 03:28:00,
2013-05-10 23:37:00,62.1,60.9,29.85,SSW,209,0.0,1.0,96,0.00,,,0.42,Wunderground v.1.15,2013-05-11 03:37:00,
2013-05-10 23:42:00,62.1,60.9,29.84,SSW,209,0.0,1.0,96,0.00,,,0.42,Wunderground v.1.15,2013-05-11 03:42:00,
2013-05-10 23:47:00,62.1,60.9,29.84,SSW,209,0.0,0.0,96,0.00,,,0.42,Wunderground v.1.15,2013-05-11 03:47:00,
2013-05-10 23:53:00,62.1,60.9,29.85,SSW,209,0.0,1.0,96,0.00,,,0.42,Wunderground v.1.15,2013-05-11 03:53:00,
2013-05-10 23:58:00,62.1,60.9,29.85,SSW,209,0.0,0.0,96,0.00,,,0.42,Wunderground v.1.15,2013-05-11 03:58:00,